sensor_id;sensor_type;location;lat;lon;timestamp;pressure;altitude;pressure_sealevel;temperature;humidity
21234;BME280;10774;42.178;26.578;2024-01-15T00:01:07;99696.19;;;-1.53;100.00
21234;BME280;10774;42.178;26.578;2024-01-15T00:03:33;99701.66;;;-1.62;100.00
21234;BME280;10774;42.178;26.578;2024-01-15T00:05:58;99705.38;;;-1.75;100.00
21234;BME280;10774;42.178;26.578;2024-01-15T00:08:24;99690.34;;;-1.69;100.00
21234;BME280;10774;42.178;26.578;2024-01-15T00:10:49;99695.72;;;-1.75;100.00
21234;BME280;10774;42.178;26.578;2024-01-15T00:13:14;99686.44;;;-1.96;100.00
21234;BME280;10774;42.178;26.578;2024-01-15T00:15:40;99686.13;;;-2.28;100.00
21234;BME280;10774;42.178;26.578;2024-01-15T00:18:05;99688.34;;;-2.04;100.00
21234;BME280;10774;42.178;26.578;2024-01-15T00:20:31;99696.44;;;-2.15;100.00
21234;BME280;10774;42.178;26.578;2024-01-15T00:22:56;99691.81;;;-2.02;100.00
21234;BME280;10774;42.178;26.578;2024-01-15T00:25:22;99677.94;;;-2.10;100.00
21234;BME280;10774;42.178;26.578;2024-01-15T00:27:48;99684.88;;;-2.06;100.00
21234;BME280;10774;42.178;26.578;2024-01-15T00:30:14;99695.75;;;-2.27;100.00
21234;BME280;10774;42.178;26.578;2024-01-15T00:32:39;99681.75;;;-2.29;100.00
21234;BME280;10774;42.178;26.578;2024-01-15T00:35:04;99693.09;;;-2.27;100.00
21234;BME280;10774;42.178;26.578;2024-01-15T00:37:30;99683.91;;;-2.53;100.00
21234;BME280;10774;42.178;26.578;2024-01-15T00:39:55;99676.94;;;-2.57;100.00
21234;BME280;10774;42.178;26.578;2024-01-15T00:42:21;99688.97;;;-2.41;100.00
21234;BME280;10774;42.178;26.578;2024-01-15T00:44:46;99684.44;;;-2.31;100.00
21234;BME280;10774;42.178;26.578;2024-01-15T00:47:11;99682.56;;;-2.24;100.00
21234;BME280;10774;42.178;26.578;2024-01-15T00:49:37;99671.72;;;-2.06;100.00
21234;BME280;10774;42.178;26.578;2024-01-15T00:52:02;99682.75;;;-1.86;100.00
21234;BME280;10774;42.178;26.578;2024-01-15T00:54:28;99683.63;;;-2.36;100.00
21234;BME280;10774;42.178;26.578;2024-01-15T00:56:53;99683.09;;;-2.58;100.00
21234;BME280;10774;42.178;26.578;2024-01-15T00:59:20;99682.06;;;-2.48;100.00
21234;BME280;10774;42.178;26.578;2024-01-15T01:37:02;99675.56;;;-3.50;100.00
21234;BME280;10774;42.178;26.578;2024-01-15T01:39:27;99676.50;;;-4.51;100.00
21234;BME280;10774;42.178;26.578;2024-01-15T01:41:53;99685.03;;;-4.28;100.00
21234;BME280;10774;42.178;26.578;2024-01-15T01:44:18;99687.19;;;-3.74;100.00
21234;BME280;10774;42.178;26.578;2024-01-15T01:46:43;99683.53;;;-3.58;100.00
21234;BME280;10774;42.178;26.578;2024-01-15T01:49:09;99678.06;;;-3.39;100.00
21234;BME280;10774;42.178;26.578;2024-01-15T01:51:35;99693.59;;;-3.23;100.00
21234;BME280;10774;42.178;26.578;2024-01-15T01:54:03;99661.84;;;-3.03;100.00
21234;BME280;10774;42.178;26.578;2024-01-15T01:56:29;99676.75;;;-3.06;100.00
21234;BME280;10774;42.178;26.578;2024-01-15T01:58:54;99667.00;;;-2.95;100.00
21234;BME280;10774;42.178;26.578;2024-01-15T02:01:20;99681.94;;;-3.00;100.00
21234;BME280;10774;42.178;26.578;2024-01-15T02:03:45;99670.41;;;-2.88;100.00
21234;BME280;10774;42.178;26.578;2024-01-15T02:06:11;99671.19;;;-2.82;100.00
21234;BME280;10774;42.178;26.578;2024-01-15T02:08:37;99664.78;;;-2.64;100.00
21234;BME280;10774;42.178;26.578;2024-01-15T02:11:03;99667.44;;;-2.66;100.00
21234;BME280;10774;42.178;26.578;2024-01-15T02:13:28;99670.09;;;-2.67;100.00
21234;BME280;10774;42.178;26.578;2024-01-15T02:15:54;99651.63;;;-2.63;100.00
21234;BME280;10774;42.178;26.578;2024-01-15T02:18:19;99657.53;;;-2.48;100.00
21234;BME280;10774;42.178;26.578;2024-01-15T02:20:45;99645.56;;;-2.66;100.00
21234;BME280;10774;42.178;26.578;2024-01-15T02:23:14;99664.13;;;-2.78;100.00
21234;BME280;10774;42.178;26.578;2024-01-15T02:25:43;99669.09;;;-2.60;100.00
21234;BME280;10774;42.178;26.578;2024-01-15T02:28:15;99651.50;;;-2.55;100.00
21234;BME280;10774;42.178;26.578;2024-01-15T02:30:41;99668.03;;;-2.47;100.00
21234;BME280;10774;42.178;26.578;2024-01-15T02:33:08;99656.69;;;-2.50;100.00
21234;BME280;10774;42.178;26.578;2024-01-15T02:35:34;99661.72;;;-2.35;100.00
21234;BME280;10774;42.178;26.578;2024-01-15T02:38:06;99645.44;;;-2.60;100.00
21234;BME280;10774;42.178;26.578;2024-01-15T02:40:32;99647.38;;;-2.71;100.00
21234;BME280;10774;42.178;26.578;2024-01-15T02:42:58;99644.03;;;-2.82;100.00
21234;BME280;10774;42.178;26.578;2024-01-15T02:45:23;99651.16;;;-2.91;100.00
21234;BME280;10774;42.178;26.578;2024-01-15T02:47:49;99639.41;;;-3.25;100.00
21234;BME280;10774;42.178;26.578;2024-01-15T02:50:15;99630.34;;;-3.06;100.00
21234;BME280;10774;42.178;26.578;2024-01-15T02:52:41;99638.44;;;-3.20;100.00
21234;BME280;10774;42.178;26.578;2024-01-15T02:55:08;99642.63;;;-3.05;100.00
21234;BME280;10774;42.178;26.578;2024-01-15T02:57:33;99634.59;;;-2.94;100.00
21234;BME280;10774;42.178;26.578;2024-01-15T02:59:59;99623.13;;;-2.88;100.00
21234;BME280;10774;42.178;26.578;2024-01-15T03:02:24;99626.56;;;-2.83;100.00
21234;BME280;10774;42.178;26.578;2024-01-15T03:04:50;99625.53;;;-2.73;100.00
21234;BME280;10774;42.178;26.578;2024-01-15T03:07:15;99618.53;;;-2.73;100.00
21234;BME280;10774;42.178;26.578;2024-01-15T03:09:41;99616.72;;;-2.71;100.00
21234;BME280;10774;42.178;26.578;2024-01-15T03:12:07;99618.56;;;-2.76;100.00
21234;BME280;10774;42.178;26.578;2024-01-15T03:14:32;99610.56;;;-2.70;100.00
21234;BME280;10774;42.178;26.578;2024-01-15T03:16:58;99607.38;;;-2.88;100.00
21234;BME280;10774;42.178;26.578;2024-01-15T03:19:23;99610.63;;;-2.74;100.00
21234;BME280;10774;42.178;26.578;2024-01-15T03:21:49;99619.38;;;-2.72;100.00
21234;BME280;10774;42.178;26.578;2024-01-15T03:24:14;99599.19;;;-2.69;100.00
21234;BME280;10774;42.178;26.578;2024-01-15T03:26:40;99598.91;;;-2.52;100.00
21234;BME280;10774;42.178;26.578;2024-01-15T03:29:05;99619.63;;;-2.87;100.00
21234;BME280;10774;42.178;26.578;2024-01-15T03:31:31;99624.97;;;-2.94;100.00
21234;BME280;10774;42.178;26.578;2024-01-15T03:33:56;99624.19;;;-3.02;100.00
21234;BME280;10774;42.178;26.578;2024-01-15T03:36:22;99616.41;;;-3.08;100.00
21234;BME280;10774;42.178;26.578;2024-01-15T03:38:48;99616.69;;;-3.29;100.00
21234;BME280;10774;42.178;26.578;2024-01-15T03:41:13;99615.91;;;-3.37;100.00
21234;BME280;10774;42.178;26.578;2024-01-15T03:43:39;99629.44;;;-3.00;100.00
21234;BME280;10774;42.178;26.578;2024-01-15T03:46:05;99612.94;;;-3.10;100.00
21234;BME280;10774;42.178;26.578;2024-01-15T03:48:31;99623.91;;;-3.48;100.00
21234;BME280;10774;42.178;26.578;2024-01-15T03:50:56;99617.56;;;-3.29;100.00
21234;BME280;10774;42.178;26.578;2024-01-15T03:53:21;99613.88;;;-3.14;100.00
21234;BME280;10774;42.178;26.578;2024-01-15T03:55:47;99603.81;;;-2.86;100.00
21234;BME280;10774;42.178;26.578;2024-01-15T03:58:12;99607.31;;;-2.85;100.00
21234;BME280;10774;42.178;26.578;2024-01-15T04:00:40;99616.19;;;-2.93;100.00
21234;BME280;10774;42.178;26.578;2024-01-15T04:03:05;99605.50;;;-2.80;100.00
21234;BME280;10774;42.178;26.578;2024-01-15T04:05:31;99622.75;;;-2.64;100.00
21234;BME280;10774;42.178;26.578;2024-01-15T04:07:56;99635.03;;;-2.66;100.00
21234;BME280;10774;42.178;26.578;2024-01-15T04:10:21;99632.28;;;-2.57;100.00
21234;BME280;10774;42.178;26.578;2024-01-15T04:12:47;99627.28;;;-2.75;100.00
21234;BME280;10774;42.178;26.578;2024-01-15T04:15:12;99634.38;;;-2.79;100.00
21234;BME280;10774;42.178;26.578;2024-01-15T04:17:38;99629.25;;;-2.88;100.00
21234;BME280;10774;42.178;26.578;2024-01-15T04:20:04;99635.59;;;-3.03;100.00
21234;BME280;10774;42.178;26.578;2024-01-15T04:22:29;99634.03;;;-3.16;100.00
21234;BME280;10774;42.178;26.578;2024-01-15T04:24:55;99619.50;;;-3.43;100.00
21234;BME280;10774;42.178;26.578;2024-01-15T04:27:20;99609.53;;;-3.18;100.00
21234;BME280;10774;42.178;26.578;2024-01-15T04:29:46;99616.47;;;-3.11;100.00
21234;BME280;10774;42.178;26.578;2024-01-15T04:32:11;99612.94;;;-3.10;100.00
21234;BME280;10774;42.178;26.578;2024-01-15T04:34:37;99616.38;;;-3.05;100.00
21234;BME280;10774;42.178;26.578;2024-01-15T04:37:02;99607.03;;;-3.26;100.00
21234;BME280;10774;42.178;26.578;2024-01-15T04:39:28;99621.84;;;-3.20;100.00
21234;BME280;10774;42.178;26.578;2024-01-15T04:41:54;99619.75;;;-2.97;100.00
21234;BME280;10774;42.178;26.578;2024-01-15T04:44:20;99629.50;;;-3.05;100.00
21234;BME280;10774;42.178;26.578;2024-01-15T04:46:46;99616.72;;;-3.32;100.00
21234;BME280;10774;42.178;26.578;2024-01-15T04:49:11;99627.53;;;-3.57;100.00
21234;BME280;10774;42.178;26.578;2024-01-15T04:51:36;99615.44;;;-3.67;100.00
21234;BME280;10774;42.178;26.578;2024-01-15T04:54:02;99628.31;;;-4.30;100.00
21234;BME280;10774;42.178;26.578;2024-01-15T04:56:27;99624.53;;;-4.02;100.00
21234;BME280;10774;42.178;26.578;2024-01-15T04:58:53;99621.63;;;-3.73;100.00
21234;BME280;10774;42.178;26.578;2024-01-15T05:01:18;99626.09;;;-3.85;100.00
21234;BME280;10774;42.178;26.578;2024-01-15T05:03:44;99618.81;;;-3.59;100.00
21234;BME280;10774;42.178;26.578;2024-01-15T05:06:09;99626.00;;;-3.73;100.00
21234;BME280;10774;42.178;26.578;2024-01-15T05:08:37;99627.13;;;-3.99;100.00
21234;BME280;10774;42.178;26.578;2024-01-15T05:11:02;99625.91;;;-3.67;100.00
21234;BME280;10774;42.178;26.578;2024-01-15T05:13:28;99627.75;;;-3.75;100.00
21234;BME280;10774;42.178;26.578;2024-01-15T05:15:53;99609.41;;;-4.63;100.00
21234;BME280;10774;42.178;26.578;2024-01-15T05:18:18;99626.94;;;-4.77;100.00
21234;BME280;10774;42.178;26.578;2024-01-15T05:20:44;99626.38;;;-4.10;100.00
21234;BME280;10774;42.178;26.578;2024-01-15T05:23:09;99626.00;;;-3.76;100.00
21234;BME280;10774;42.178;26.578;2024-01-15T05:25:35;99621.28;;;-3.48;100.00
21234;BME280;10774;42.178;26.578;2024-01-15T05:28:01;99616.94;;;-3.48;100.00
21234;BME280;10774;42.178;26.578;2024-01-15T05:30:26;99621.13;;;-3.34;100.00
21234;BME280;10774;42.178;26.578;2024-01-15T05:32:51;99611.56;;;-3.38;100.00
21234;BME280;10774;42.178;26.578;2024-01-15T05:35:17;99604.28;;;-3.18;100.00
21234;BME280;10774;42.178;26.578;2024-01-15T05:37:44;99595.69;;;-3.29;100.00
21234;BME280;10774;42.178;26.578;2024-01-15T05:40:13;99590.53;;;-3.35;100.00
21234;BME280;10774;42.178;26.578;2024-01-15T05:42:39;99588.69;;;-3.29;100.00
21234;BME280;10774;42.178;26.578;2024-01-15T05:45:05;99580.63;;;-3.81;100.00
21234;BME280;10774;42.178;26.578;2024-01-15T05:47:31;99574.81;;;-3.35;100.00
21234;BME280;10774;42.178;26.578;2024-01-15T05:50:01;99585.47;;;-3.48;100.00
21234;BME280;10774;42.178;26.578;2024-01-15T05:52:27;99574.75;;;-3.34;100.00
21234;BME280;10774;42.178;26.578;2024-01-15T05:54:52;99579.25;;;-3.44;100.00
21234;BME280;10774;42.178;26.578;2024-01-15T05:57:18;99572.19;;;-3.35;100.00
21234;BME280;10774;42.178;26.578;2024-01-15T05:59:44;99577.16;;;-3.16;100.00
21234;BME280;10774;42.178;26.578;2024-01-15T06:02:10;99583.84;;;-2.95;100.00
21234;BME280;10774;42.178;26.578;2024-01-15T06:04:36;99601.75;;;-3.24;100.00
21234;BME280;10774;42.178;26.578;2024-01-15T06:07:01;99597.41;;;-3.25;100.00
21234;BME280;10774;42.178;26.578;2024-01-15T06:09:27;99569.28;;;-3.17;100.00
21234;BME280;10774;42.178;26.578;2024-01-15T06:11:53;99579.28;;;-3.42;100.00
21234;BME280;10774;42.178;26.578;2024-01-15T06:14:19;99572.25;;;-3.42;100.00
21234;BME280;10774;42.178;26.578;2024-01-15T06:16:44;99581.75;;;-3.31;100.00
21234;BME280;10774;42.178;26.578;2024-01-15T06:19:09;99571.25;;;-3.31;100.00
21234;BME280;10774;42.178;26.578;2024-01-15T06:21:35;99574.91;;;-3.45;100.00
21234;BME280;10774;42.178;26.578;2024-01-15T06:24:00;99580.59;;;-3.13;100.00
21234;BME280;10774;42.178;26.578;2024-01-15T06:26:26;99588.13;;;-2.91;100.00
21234;BME280;10774;42.178;26.578;2024-01-15T06:28:51;99579.72;;;-3.11;100.00
21234;BME280;10774;42.178;26.578;2024-01-15T06:31:17;99588.66;;;-3.26;100.00
21234;BME280;10774;42.178;26.578;2024-01-15T06:33:42;99579.63;;;-3.05;100.00
21234;BME280;10774;42.178;26.578;2024-01-15T06:36:08;99567.81;;;-3.36;100.00
21234;BME280;10774;42.178;26.578;2024-01-15T06:38:33;99592.69;;;-3.00;100.00
21234;BME280;10774;42.178;26.578;2024-01-15T06:40:59;99585.66;;;-3.01;100.00
21234;BME280;10774;42.178;26.578;2024-01-15T06:43:24;99585.59;;;-3.60;100.00
21234;BME280;10774;42.178;26.578;2024-01-15T06:45:50;99595.31;;;-4.50;100.00
21234;BME280;10774;42.178;26.578;2024-01-15T06:48:15;99580.59;;;-4.64;100.00
21234;BME280;10774;42.178;26.578;2024-01-15T06:50:44;99578.78;;;-4.56;100.00
21234;BME280;10774;42.178;26.578;2024-01-15T06:53:10;99602.38;;;-4.61;100.00
21234;BME280;10774;42.178;26.578;2024-01-15T06:55:37;99594.44;;;-4.50;100.00
21234;BME280;10774;42.178;26.578;2024-01-15T06:58:02;99584.88;;;-4.53;100.00
21234;BME280;10774;42.178;26.578;2024-01-15T07:00:28;99590.97;;;-4.55;100.00
21234;BME280;10774;42.178;26.578;2024-01-15T07:02:54;99579.06;;;-3.98;100.00
21234;BME280;10774;42.178;26.578;2024-01-15T07:05:20;99588.13;;;-3.51;100.00
21234;BME280;10774;42.178;26.578;2024-01-15T07:07:45;99591.88;;;-3.07;100.00
21234;BME280;10774;42.178;26.578;2024-01-15T07:10:11;99600.97;;;-2.71;100.00
21234;BME280;10774;42.178;26.578;2024-01-15T07:12:36;99595.44;;;-2.54;100.00
21234;BME280;10774;42.178;26.578;2024-01-15T07:15:02;99586.13;;;-2.21;100.00
21234;BME280;10774;42.178;26.578;2024-01-15T07:17:29;99580.47;;;-1.99;100.00
21234;BME280;10774;42.178;26.578;2024-01-15T07:19:55;99572.38;;;-1.89;100.00
21234;BME280;10774;42.178;26.578;2024-01-15T07:22:20;99566.31;;;-1.50;100.00
21234;BME280;10774;42.178;26.578;2024-01-15T07:24:46;99560.06;;;-1.45;100.00
21234;BME280;10774;42.178;26.578;2024-01-15T07:27:11;99565.56;;;-1.15;100.00
21234;BME280;10774;42.178;26.578;2024-01-15T07:29:37;99571.09;;;-0.89;100.00
21234;BME280;10774;42.178;26.578;2024-01-15T07:32:03;99560.28;;;-0.78;100.00
21234;BME280;10774;42.178;26.578;2024-01-15T07:34:29;99549.06;;;-0.50;100.00
21234;BME280;10774;42.178;26.578;2024-01-15T07:36:54;99549.19;;;-0.55;100.00
21234;BME280;10774;42.178;26.578;2024-01-15T07:39:20;99551.66;;;-0.49;100.00
21234;BME280;10774;42.178;26.578;2024-01-15T07:41:47;99546.59;;;-0.58;100.00
21234;BME280;10774;42.178;26.578;2024-01-15T07:44:13;99546.84;;;-0.32;100.00
21234;BME280;10774;42.178;26.578;2024-01-15T07:46:38;99534.88;;;-0.12;100.00
21234;BME280;10774;42.178;26.578;2024-01-15T07:49:04;99536.16;;;0.04;100.00
21234;BME280;10774;42.178;26.578;2024-01-15T07:51:30;99544.56;;;-0.13;100.00
21234;BME280;10774;42.178;26.578;2024-01-15T07:53:56;99541.72;;;-0.05;100.00
21234;BME280;10774;42.178;26.578;2024-01-15T07:56:21;99543.09;;;0.08;100.00
21234;BME280;10774;42.178;26.578;2024-01-15T07:58:47;99534.69;;;-0.06;100.00
21234;BME280;10774;42.178;26.578;2024-01-15T08:01:12;99540.53;;;-0.28;100.00
21234;BME280;10774;42.178;26.578;2024-01-15T08:03:37;99538.47;;;-0.16;100.00
21234;BME280;10774;42.178;26.578;2024-01-15T08:06:03;99550.03;;;0.12;100.00
21234;BME280;10774;42.178;26.578;2024-01-15T08:08:29;99543.09;;;0.08;100.00
21234;BME280;10774;42.178;26.578;2024-01-15T08:10:54;99546.81;;;0.01;100.00
21234;BME280;10774;42.178;26.578;2024-01-15T08:13:20;99543.47;;;0.25;100.00
21234;BME280;10774;42.178;26.578;2024-01-15T08:15:45;99546.72;;;-0.29;100.00
21234;BME280;10774;42.178;26.578;2024-01-15T08:18:11;99551.34;;;-1.08;100.00
21234;BME280;10774;42.178;26.578;2024-01-15T08:20:36;99549.25;;;-1.74;100.00
21234;BME280;10774;42.178;26.578;2024-01-15T08:23:02;99575.59;;;-2.22;100.00
21234;BME280;10774;42.178;26.578;2024-01-15T08:25:28;99578.00;;;-2.58;100.00
21234;BME280;10774;42.178;26.578;2024-01-15T08:27:53;99564.28;;;-2.77;100.00
21234;BME280;10774;42.178;26.578;2024-01-15T08:30:19;99571.16;;;-2.70;100.00
21234;BME280;10774;42.178;26.578;2024-01-15T08:32:45;99578.03;;;-2.61;100.00
21234;BME280;10774;42.178;26.578;2024-01-15T08:35:11;99580.63;;;-2.58;100.00
21234;BME280;10774;42.178;26.578;2024-01-15T08:37:37;99559.75;;;-2.67;100.00
21234;BME280;10774;42.178;26.578;2024-01-15T08:40:03;99565.91;;;-2.68;100.00
21234;BME280;10774;42.178;26.578;2024-01-15T08:42:29;99563.97;;;-2.57;100.00
21234;BME280;10774;42.178;26.578;2024-01-15T08:44:54;99570.16;;;-2.61;100.00
21234;BME280;10774;42.178;26.578;2024-01-15T08:47:20;99547.88;;;-2.37;100.00
21234;BME280;10774;42.178;26.578;2024-01-15T08:49:45;99544.59;;;-2.51;100.00
21234;BME280;10774;42.178;26.578;2024-01-15T08:52:11;99542.38;;;-2.25;100.00
21234;BME280;10774;42.178;26.578;2024-01-15T08:54:37;99520.34;;;-2.19;100.00
21234;BME280;10774;42.178;26.578;2024-01-15T08:57:02;99533.88;;;-1.93;100.00
21234;BME280;10774;42.178;26.578;2024-01-15T08:59:28;99534.63;;;-1.88;100.00
21234;BME280;10774;42.178;26.578;2024-01-15T09:01:53;99528.56;;;-1.90;100.00
21234;BME280;10774;42.178;26.578;2024-01-15T09:04:19;99542.41;;;-1.81;100.00
21234;BME280;10774;42.178;26.578;2024-01-15T09:06:47;99531.50;;;-1.63;100.00
21234;BME280;10774;42.178;26.578;2024-01-15T09:09:13;99522.56;;;-1.56;100.00
21234;BME280;10774;42.178;26.578;2024-01-15T09:11:41;99510.81;;;-1.40;100.00
21234;BME280;10774;42.178;26.578;2024-01-15T09:14:07;99508.47;;;-1.52;100.00
21234;BME280;10774;42.178;26.578;2024-01-15T09:16:33;99497.69;;;-1.43;100.00
21234;BME280;10774;42.178;26.578;2024-01-15T09:18:59;99499.97;;;-0.89;100.00
21234;BME280;10774;42.178;26.578;2024-01-15T09:21:25;99493.44;;;-0.09;100.00
21234;BME280;10774;42.178;26.578;2024-01-15T09:23:50;99474.09;;;0.22;100.00
21234;BME280;10774;42.178;26.578;2024-01-15T09:26:16;99474.47;;;0.67;100.00
21234;BME280;10774;42.178;26.578;2024-01-15T09:28:41;99484.47;;;0.28;100.00
21234;BME280;10774;42.178;26.578;2024-01-15T09:31:07;99483.03;;;-0.80;100.00
21234;BME280;10774;42.178;26.578;2024-01-15T09:33:33;99489.91;;;-0.73;100.00
21234;BME280;10774;42.178;26.578;2024-01-15T09:36:02;99483.41;;;-0.95;100.00
21234;BME280;10774;42.178;26.578;2024-01-15T09:38:29;99482.16;;;-0.81;100.00
21234;BME280;10774;42.178;26.578;2024-01-15T09:40:55;99470.84;;;-0.50;100.00
21234;BME280;10774;42.178;26.578;2024-01-15T09:43:21;99482.88;;;-0.40;100.00
21234;BME280;10774;42.178;26.578;2024-01-15T09:45:46;99468.94;;;-0.45;100.00
21234;BME280;10774;42.178;26.578;2024-01-15T09:48:12;99477.84;;;-0.49;100.00
21234;BME280;10774;42.178;26.578;2024-01-15T09:50:38;99472.53;;;-0.15;100.00
21234;BME280;10774;42.178;26.578;2024-01-15T09:53:05;99465.00;;;0.03;100.00
21234;BME280;10774;42.178;26.578;2024-01-15T09:55:31;99465.09;;;0.29;100.00
21234;BME280;10774;42.178;26.578;2024-01-15T09:58:00;99459.78;;;0.87;100.00
21234;BME280;10774;42.178;26.578;2024-01-15T10:00:26;99447.63;;;1.59;100.00
21234;BME280;10774;42.178;26.578;2024-01-15T10:02:52;99431.88;;;2.26;100.00
21234;BME280;10774;42.178;26.578;2024-01-15T10:05:18;99416.31;;;2.64;100.00
21234;BME280;10774;42.178;26.578;2024-01-15T10:07:45;99422.19;;;2.93;100.00
21234;BME280;10774;42.178;26.578;2024-01-15T10:10:12;99412.50;;;2.26;100.00
21234;BME280;10774;42.178;26.578;2024-01-15T10:12:39;99405.19;;;2.76;100.00
21234;BME280;10774;42.178;26.578;2024-01-15T10:15:04;99393.34;;;3.07;100.00
21234;BME280;10774;42.178;26.578;2024-01-15T10:17:30;99398.31;;;2.50;100.00
21234;BME280;10774;42.178;26.578;2024-01-15T10:19:57;99409.19;;;1.97;100.00
21234;BME280;10774;42.178;26.578;2024-01-15T10:22:22;99408.28;;;1.50;100.00
21234;BME280;10774;42.178;26.578;2024-01-15T10:24:48;99414.03;;;1.36;100.00
21234;BME280;10774;42.178;26.578;2024-01-15T10:27:14;99415.97;;;1.06;100.00
21234;BME280;10774;42.178;26.578;2024-01-15T10:29:41;99409.13;;;1.00;100.00
21234;BME280;10774;42.178;26.578;2024-01-15T10:32:07;99399.59;;;0.95;100.00
21234;BME280;10774;42.178;26.578;2024-01-15T10:34:39;99399.19;;;1.07;100.00
21234;BME280;10774;42.178;26.578;2024-01-15T10:37:07;99411.72;;;1.02;100.00
21234;BME280;10774;42.178;26.578;2024-01-15T10:39:32;99392.56;;;1.20;100.00
21234;BME280;10774;42.178;26.578;2024-01-15T10:41:58;99395.84;;;1.52;100.00
21234;BME280;10774;42.178;26.578;2024-01-15T10:44:25;99390.00;;;1.67;100.00
21234;BME280;10774;42.178;26.578;2024-01-15T10:46:50;99385.13;;;2.03;100.00
21234;BME280;10774;42.178;26.578;2024-01-15T10:49:18;99361.13;;;1.84;100.00
21234;BME280;10774;42.178;26.578;2024-01-15T10:51:46;99345.66;;;2.63;100.00
21234;BME280;10774;42.178;26.578;2024-01-15T10:54:13;99332.72;;;2.77;100.00
21234;BME280;10774;42.178;26.578;2024-01-15T10:56:39;99341.72;;;2.73;100.00
21234;BME280;10774;42.178;26.578;2024-01-15T10:59:05;99341.88;;;2.48;100.00
21234;BME280;10774;42.178;26.578;2024-01-15T11:01:33;99340.91;;;2.29;100.00
21234;BME280;10774;42.178;26.578;2024-01-15T11:04:00;99342.66;;;2.72;100.00
21234;BME280;10774;42.178;26.578;2024-01-15T11:06:27;99339.47;;;1.75;100.00
21234;BME280;10774;42.178;26.578;2024-01-15T11:08:54;99341.00;;;2.04;100.00
21234;BME280;10774;42.178;26.578;2024-01-15T11:11:21;99326.63;;;2.75;100.00
21234;BME280;10774;42.178;26.578;2024-01-15T11:13:47;99318.84;;;2.50;100.00
21234;BME280;10774;42.178;26.578;2024-01-15T11:16:15;99333.50;;;3.40;100.00
21234;BME280;10774;42.178;26.578;2024-01-15T11:19:02;99326.09;;;2.67;100.00
21234;BME280;10774;42.178;26.578;2024-01-15T11:21:28;99322.81;;;3.03;100.00
21234;BME280;10774;42.178;26.578;2024-01-15T11:23:59;99312.97;;;3.05;100.00
21234;BME280;10774;42.178;26.578;2024-01-15T11:26:43;99310.50;;;3.80;100.00
21234;BME280;10774;42.178;26.578;2024-01-15T11:31:58;99287.09;;;4.07;100.00
21234;BME280;10774;42.178;26.578;2024-01-15T11:37:15;99282.88;;;4.20;100.00
21234;BME280;10774;42.178;26.578;2024-01-15T11:39:41;99268.00;;;4.35;100.00
21234;BME280;10774;42.178;26.578;2024-01-15T11:42:13;99265.50;;;4.84;100.00
21234;BME280;10774;42.178;26.578;2024-01-15T11:44:39;99284.94;;;4.86;100.00
21234;BME280;10774;42.178;26.578;2024-01-15T11:47:09;99280.72;;;4.29;100.00
21234;BME280;10774;42.178;26.578;2024-01-15T11:52:19;99276.91;;;4.52;100.00
21234;BME280;10774;42.178;26.578;2024-01-15T11:54:55;99274.91;;;4.57;100.00
21234;BME280;10774;42.178;26.578;2024-01-15T11:57:52;99280.69;;;5.17;100.00
21234;BME280;10774;42.178;26.578;2024-01-15T12:00:19;99263.34;;;4.92;100.00
21234;BME280;10774;42.178;26.578;2024-01-15T12:02:47;99257.28;;;5.72;100.00
21234;BME280;10774;42.178;26.578;2024-01-15T12:05:16;99249.91;;;6.25;100.00
21234;BME280;10774;42.178;26.578;2024-01-15T12:07:44;99236.66;;;6.39;100.00
21234;BME280;10774;42.178;26.578;2024-01-15T12:10:10;99245.44;;;6.25;100.00
21234;BME280;10774;42.178;26.578;2024-01-15T12:15:11;99248.13;;;4.25;100.00
21234;BME280;10774;42.178;26.578;2024-01-15T12:17:40;99245.50;;;4.42;100.00
21234;BME280;10774;42.178;26.578;2024-01-15T12:20:06;99245.97;;;4.33;100.00
21234;BME280;10774;42.178;26.578;2024-01-15T12:22:32;99233.06;;;4.78;100.00
21234;BME280;10774;42.178;26.578;2024-01-15T12:24:58;99243.94;;;4.73;100.00
21234;BME280;10774;42.178;26.578;2024-01-15T12:27:24;99251.25;;;5.20;100.00
21234;BME280;10774;42.178;26.578;2024-01-15T12:29:49;99246.34;;;4.95;100.00
21234;BME280;10774;42.178;26.578;2024-01-15T12:32:15;99241.75;;;5.32;100.00
21234;BME280;10774;42.178;26.578;2024-01-15T12:34:40;99245.84;;;5.55;100.00
21234;BME280;10774;42.178;26.578;2024-01-15T12:37:07;99243.69;;;5.77;100.00
21234;BME280;10774;42.178;26.578;2024-01-15T12:39:36;99240.13;;;6.10;100.00
21234;BME280;10774;42.178;26.578;2024-01-15T12:42:02;99230.81;;;6.17;100.00
21234;BME280;10774;42.178;26.578;2024-01-15T12:44:29;99212.00;;;6.20;100.00
21234;BME280;10774;42.178;26.578;2024-01-15T12:46:54;99216.66;;;6.46;100.00
21234;BME280;10774;42.178;26.578;2024-01-15T12:49:21;99232.69;;;5.51;100.00
21234;BME280;10774;42.178;26.578;2024-01-15T12:52:13;99231.31;;;5.44;100.00
21234;BME280;10774;42.178;26.578;2024-01-15T12:54:38;99226.06;;;5.90;100.00
21234;BME280;10774;42.178;26.578;2024-01-15T12:57:03;99227.00;;;6.07;100.00
21234;BME280;10774;42.178;26.578;2024-01-15T12:59:29;99221.06;;;6.01;100.00
21234;BME280;10774;42.178;26.578;2024-01-15T13:01:54;99218.53;;;6.30;100.00
21234;BME280;10774;42.178;26.578;2024-01-15T13:04:23;99219.66;;;7.00;100.00
21234;BME280;10774;42.178;26.578;2024-01-15T13:06:50;99213.94;;;6.92;100.00
21234;BME280;10774;42.178;26.578;2024-01-15T13:09:19;99202.31;;;7.36;100.00
21234;BME280;10774;42.178;26.578;2024-01-15T13:11:45;99197.59;;;7.68;100.00
21234;BME280;10774;42.178;26.578;2024-01-15T13:14:10;99167.75;;;7.76;100.00
21234;BME280;10774;42.178;26.578;2024-01-15T13:16:36;99189.88;;;8.05;100.00
21234;BME280;10774;42.178;26.578;2024-01-15T13:19:01;99202.03;;;6.98;100.00
21234;BME280;10774;42.178;26.578;2024-01-15T13:21:29;99202.66;;;6.13;100.00
21234;BME280;10774;42.178;26.578;2024-01-15T13:23:55;99187.69;;;5.78;100.00